Time;durP1;ratioP1;P1;durP2;ratioP2;P2;SDS_P1;SDS_P2;PMS_P1;PMS_P2;Temp;Humidity;BMP_temperature;BMP_pressure;BME280_temperature;BME280_humidity;BME280_pressure;Samples;Min_cycle;Max_cycle;Signal;HPM_P1;HPM_P2
2021/10/28 00:13:01;;;;;;;5.13;1.77;;;29.10;72.20;;;;;;5090303;28;20028;-73
2021/10/28 00:15:35;;;;;;;3.92;1.50;;;29.60;72.40;;;;;;5090067;28;20028;-73
2021/10/28 00:20:34;;;;;;;3.47;1.27;;;31.50;66.20;;;;;;5084967;28;20089;-71
2021/10/28 00:23:03;;;;;;;2.25;1.17;;;31.50;64.20;;;;;;5065092;28;20028;-72
2021/10/28 00:25:32;;;;;;;5.38;1.38;;;31.20;63.90;;;;;;5083010;28;20025;-73
2021/10/28 00:27:59;;;;;;;1.52;1.00;;;30.80;64.20;;;;;;5083055;28;20034;-74
2021/10/28 00:30:28;;;;;;;2.83;0.98;;;30.60;62.50;;;;;;5090252;28;20103;-69
2021/10/28 00:32:56;;;;;;;4.55;1.77;;;30.50;62.00;;;;;;5086899;28;20056;-75
2021/10/28 00:35:23;;;;;;;6.15;1.10;;;30.30;63.20;;;;;;5080145;28;20113;-75
2021/10/28 00:37:51;;;;;;;2.15;1.08;;;30.20;62.00;;;;;;5084615;28;20058;-74
2021/10/28 00:40:18;;;;;;;4.07;2.08;;;30.20;60.60;;;;;;5086593;28;20047;-75
2021/10/28 00:42:48;;;;;;;5.22;1.33;;;30.50;63.70;;;;;;5100583;28;20047;-75
2021/10/28 00:45:16;;;;;;;2.72;0.70;;;31.00;60.40;;;;;;5090574;28;20025;-75
2021/10/28 00:47:43;;;;;;;2.90;0.93;;;31.30;61.60;;;;;;5092282;28;20024;-73
2021/10/28 00:50:11;;;;;;;2.75;1.00;;;31.90;61.50;;;;;;5084240;28;20023;-73
2021/10/28 00:52:38;;;;;;;1.77;1.27;;;32.40;60.10;;;;;;5084604;28;20028;-70
2021/10/28 00:55:06;;;;;;;1.10;0.70;;;32.60;55.20;;;;;;5090462;28;20039;-73
2021/10/28 00:57:34;;;;;;;2.72;0.65;;;32.70;57.20;;;;;;5078750;28;20038;-72
2021/10/28 01:00:04;;;;;;;2.92;1.00;;;32.50;54.80;;;;;;5081860;28;20032;-73
2021/10/28 01:02:32;;;;;;;1.65;0.60;;;32.20;53.10;;;;;;5075120;28;20155;-72
2021/10/28 01:05:00;;;;;;;1.30;0.40;;;32.00;48.60;;;;;;5082810;28;20012;-72
2021/10/28 01:07:28;;;;;;;1.48;0.57;;;32.10;46.10;;;;;;5058383;28;20036;-74
2021/10/28 01:09:55;;;;;;;1.80;0.60;;;32.30;47.60;;;;;;5078308;28;20046;-71
2021/10/28 01:12:22;;;;;;;1.77;1.13;;;32.10;47.20;;;;;;5081993;28;20077;-72
2021/10/28 01:14:50;;;;;;;1.17;0.80;;;31.80;47.90;;;;;;5080304;28;20032;-73
2021/10/28 01:17:17;;;;;;;1.35;0.63;;;31.60;47.40;;;;;;5077909;28;20102;-72
2021/10/28 01:19:50;;;;;;;1.73;0.47;;;31.60;48.60;;;;;;5081518;28;20040;-73
2021/10/28 01:22:19;;;;;;;2.13;0.70;;;32.10;50.00;;;;;;5075644;28;20537;-72
2021/10/28 01:24:46;;;;;;;1.63;0.80;;;32.80;47.50;;;;;;5066260;28;20498;-72
2021/10/28 01:27:14;;;;;;;1.13;0.40;;;33.30;47.00;;;;;;5078674;28;20028;-71
2021/10/28 01:29:43;;;;;;;1.30;0.73;;;33.60;46.70;;;;;;5076523;28;20048;-71
2021/10/28 01:32:11;;;;;;;1.30;0.40;;;34.20;50.20;;;;;;5081307;28;20067;-71
2021/10/28 01:34:46;;;;;;;1.10;0.40;;;34.60;44.60;;;;;;5080300;28;20103;-76
2021/10/28 01:37:15;;;;;;;2.13;0.50;;;34.70;42.10;;;;;;5067467;28;20115;-75
2021/10/28 01:39:42;;;;;;;1.15;0.40;;;34.90;42.00;;;;;;5077804;28;20042;-73
2021/10/28 01:42:11;;;;;;;1.30;0.40;;;35.10;40.60;;;;;;5084909;28;20088;-74
2021/10/28 01:44:41;;;;;;;1.55;0.65;;;35.50;38.80;;;;;;5080595;28;20032;-73
2021/10/28 01:47:16;;;;;;;0.75;0.40;;;35.80;41.20;;;;;;5082799;28;20024;-72
2021/10/28 01:50:02;;;;;;;1.50;0.35;;;35.80;37.10;;;;;;5068791;28;20060;-74
2021/10/28 01:52:35;;;;;;;1.35;0.38;;;35.30;36.30;;;;;;5047556;28;20028;-73
2021/10/28 01:55:10;;;;;;;1.15;0.30;;;35.40;38.70;;;;;;5083341;28;20592;-73
2021/10/28 01:57:43;;;;;;;0.50;0.40;;;36.00;39.50;;;;;;5060161;28;20036;-71
2021/10/28 02:00:21;;;;;;;1.75;0.30;;;36.60;36.70;;;;;;5076049;28;20028;-72
2021/10/28 02:02:54;;;;;;;3.08;0.47;;;36.90;35.50;;;;;;5077863;28;20024;-74
2021/10/28 02:05:24;;;;;;;2.13;0.40;;;37.00;35.30;;;;;;5078414;28;20503;-73
2021/10/28 02:07:52;;;;;;;1.08;0.30;;;37.20;39.70;;;;;;5078822;28;20020;-73
2021/10/28 02:10:20;;;;;;;2.25;0.63;;;37.50;35.20;;;;;;5079479;28;20056;-73
2021/10/28 02:12:50;;;;;;;1.52;0.20;;;37.50;38.60;;;;;;5078747;28;20135;-74
2021/10/28 02:15:29;;;;;;;2.15;0.63;;;37.20;35.30;;;;;;5064735;28;20222;-74
2021/10/28 02:17:56;;;;;;;1.58;0.40;;;37.50;37.30;;;;;;5066522;28;20055;-76
2021/10/28 02:20:23;;;;;;;1.90;0.80;;;37.50;34.90;;;;;;5077156;28;20055;-74
2021/10/28 02:22:51;;;;;;;0.80;0.40;;;37.70;38.20;;;;;;5076572;28;20034;-73
2021/10/28 02:25:18;;;;;;;2.28;0.30;;;37.50;34.20;;;;;;5077314;28;20138;-73
2021/10/28 02:27:47;;;;;;;1.55;0.40;;;37.30;37.60;;;;;;5078361;28;20115;-72
2021/10/28 02:30:14;;;;;;;0.73;0.30;;;37.60;37.90;;;;;;5077595;28;20542;-74
2021/10/28 02:32:43;;;;;;;2.00;0.50;;;37.80;37.80;;;;;;5079605;28;20043;-74
2021/10/28 02:35:10;;;;;;;0.80;0.40;;;37.70;35.90;;;;;;5091604;28;20024;-73
2021/10/28 02:37:38;;;;;;;0.82;0.20;;;37.80;35.70;;;;;;5084217;28;20036;-72
2021/10/28 02:40:07;;;;;;;3.70;0.52;;;37.90;37.30;;;;;;5076964;28;20082;-73
2021/10/28 02:42:35;;;;;;;0.93;0.30;;;37.80;36.40;;;;;;5077542;28;20031;-73
2021/10/28 02:45:03;;;;;;;1.02;0.25;;;37.60;34.50;;;;;;5084419;28;20020;-72
2021/10/28 02:47:30;;;;;;;0.65;0.40;;;37.30;35.60;;;;;;5080276;28;20168;-72
2021/10/28 02:49:58;;;;;;;3.00;0.63;;;37.40;36.40;;;;;;5080204;28;20208;-73
2021/10/28 02:52:25;;;;;;;4.53;0.82;;;37.50;36.60;;;;;;5081686;28;20078;-73
2021/10/28 02:54:56;;;;;;;0.73;0.40;;;37.50;37.60;;;;;;5076704;28;20028;-74
2021/10/28 02:57:23;;;;;;;1.38;0.30;;;37.60;36.20;;;;;;5082008;28;20024;-75
2021/10/28 02:59:50;;;;;;;2.25;0.30;;;37.50;34.40;;;;;;5076115;28;20033;-75
2021/10/28 03:02:18;;;;;;;1.83;0.40;;;37.40;34.50;;;;;;5080506;28;20090;-75
2021/10/28 03:04:45;;;;;;;2.20;0.50;;;37.50;35.30;;;;;;5082917;28;20072;-76
2021/10/28 03:07:12;;;;;;;1.17;0.30;;;37.60;34.40;;;;;;5078920;28;20128;-74
2021/10/28 03:09:40;;;;;;;0.50;0.30;;;37.60;34.90;;;;;;5065251;28;20383;-73
2021/10/28 03:12:08;;;;;;;3.60;0.50;;;37.80;36.40;;;;;;5084189;28;20031;-73
2021/10/28 03:14:50;;;;;;;1.52;0.40;;;38.00;35.00;;;;;;5080417;28;20059;-76
2021/10/28 03:18:13;;;;;;;0.88;0.30;;;38.10;33.80;;;;;;5077447;28;20035;-75
2021/10/28 03:25:41;;;;;;;0.73;0.47;;;37.80;35.50;;;;;;5077921;28;20440;-73
2021/10/28 03:28:17;;;;;;;0.88;0.40;;;37.60;33.80;;;;;;5080475;28;20020;-73
2021/10/28 03:30:45;;;;;;;1.92;0.32;;;37.60;35.80;;;;;;5081641;28;20024;-72
2021/10/28 03:33:16;;;;;;;3.10;0.47;;;37.30;36.60;;;;;;5077675;28;20047;-76
2021/10/28 03:35:46;;;;;;;0.40;0.20;;;36.90;34.90;;;;;;5081407;28;20029;-74
2021/10/28 03:43:47;;;;;;;0.30;0.30;;;37.00;34.70;;;;;;5080756;28;20024;-73
2021/10/28 03:55:17;;;;;;;1.27;0.40;;;36.40;36.70;;;;;;5007778;28;20156;-71
2021/10/28 03:58:09;;;;;;;3.13;0.30;;;36.40;36.80;;;;;;5018401;28;20045;-70
2021/10/28 04:16:20;;;;;;;1.05;0.30;;;35.80;37.10;;;;;;5082715;28;20065;-72
2021/10/28 04:30:18;;;;;;;1.13;0.90;;;34.90;36.40;;;;;;5084937;28;20024;-71
2021/10/28 04:32:45;;;;;;;1.23;0.57;;;34.90;36.70;;;;;;5086546;28;20064;-72
2021/10/28 04:35:13;;;;;;;1.40;0.40;;;34.90;38.00;;;;;;5079842;28;20063;-72
2021/10/28 04:37:40;;;;;;;1.23;0.40;;;34.80;36.30;;;;;;5076649;28;20046;-71
2021/10/28 04:40:08;;;;;;;4.47;0.82;;;34.70;38.20;;;;;;5081126;28;20850;-73
2021/10/28 04:42:36;;;;;;;0.75;0.40;;;34.50;37.20;;;;;;5079663;28;20024;-72
2021/10/28 04:45:05;;;;;;;2.30;0.70;;;34.60;38.90;;;;;;5079732;28;20034;-72
2021/10/28 04:47:32;;;;;;;0.75;0.20;;;34.60;38.00;;;;;;5077362;28;20035;-71
2021/10/28 04:50:00;;;;;;;3.92;0.50;;;34.60;37.30;;;;;;5083192;28;20027;-72
2021/10/28 04:52:27;;;;;;;1.35;0.30;;;34.70;37.00;;;;;;5084931;28;20425;-72
2021/10/28 04:54:54;;;;;;;3.40;0.22;;;34.60;36.50;;;;;;5080243;28;20104;-71
2021/10/28 04:57:22;;;;;;;2.80;0.68;;;34.60;36.40;;;;;;5061198;28;20441;-70
2021/10/28 04:59:49;;;;;;;8.05;0.40;;;34.30;36.60;;;;;;5079089;28;20141;-72
2021/10/28 05:02:16;;;;;;;3.80;0.40;;;34.00;36.50;;;;;;5082989;28;20459;-70
2021/10/28 05:04:44;;;;;;;3.75;0.40;;;33.90;36.90;;;;;;5091596;28;20040;-72
2021/10/28 05:07:11;;;;;;;2.13;0.22;;;33.80;38.60;;;;;;5090639;28;20028;-71
2021/10/28 05:09:40;;;;;;;3.55;0.30;;;33.70;38.80;;;;;;5090582;28;20036;-73
2021/10/28 05:12:09;;;;;;;7.38;0.60;;;33.70;36.90;;;;;;5087512;28;20508;-71
2021/10/28 05:14:36;;;;;;;1.20;0.40;;;33.60;37.30;;;;;;5092287;28;20020;-71
2021/10/28 05:17:04;;;;;;;1.20;0.43;;;33.60;36.40;;;;;;5072824;28;20082;-73
2021/10/28 05:19:34;;;;;;;0.77;0.38;;;33.50;36.60;;;;;;5093070;28;20036;-72
2021/10/28 05:22:03;;;;;;;2.53;0.30;;;33.50;36.80;;;;;;5089827;28;20020;-72
2021/10/28 05:24:30;;;;;;;1.02;0.20;;;33.50;36.70;;;;;;5092288;28;20032;-72
2021/10/28 05:26:58;;;;;;;2.05;0.30;;;33.40;35.60;;;;;;5088818;28;20063;-72
2021/10/28 05:29:25;;;;;;;2.90;0.30;;;33.30;36.10;;;;;;5086486;28;20027;-73
2021/10/28 05:31:53;;;;;;;3.53;0.30;;;33.30;36.60;;;;;;5080030;28;20059;-71
2021/10/28 05:34:21;;;;;;;2.50;0.32;;;33.20;36.60;;;;;;5090718;28;20028;-74
2021/10/28 05:36:49;;;;;;;0.70;0.35;;;33.20;36.30;;;;;;5087344;28;20032;-72
2021/10/28 05:39:16;;;;;;;1.63;0.40;;;33.10;36.30;;;;;;5091858;28;20081;-70
2021/10/28 05:41:44;;;;;;;4.30;0.50;;;33.10;37.60;;;;;;5084714;28;20031;-73
2021/10/28 05:44:12;;;;;;;3.03;1.30;;;33.00;37.60;;;;;;5092196;28;20099;-70
2021/10/28 05:46:43;;;;;;;4.22;1.10;;;33.00;37.00;;;;;;5085925;28;20108;-72
2021/10/28 05:49:10;;;;;;;7.90;0.73;;;32.90;36.70;;;;;;5075288;28;20380;-72
2021/10/28 05:51:38;;;;;;;3.42;0.57;;;32.70;37.10;;;;;;5084715;28;20032;-71
2021/10/28 05:54:06;;;;;;;4.03;0.93;;;32.70;37.10;;;;;;5097815;28;20393;-74
2021/10/28 05:56:34;;;;;;;1.52;0.68;;;32.60;37.20;;;;;;5084820;28;20033;-71
2021/10/28 05:59:01;;;;;;;1.33;0.40;;;32.50;37.60;;;;;;5078218;28;20043;-71
2021/10/28 06:01:29;;;;;;;1.95;0.28;;;32.50;37.10;;;;;;5088584;28;20046;-72
2021/10/28 06:03:56;;;;;;;1.75;0.20;;;32.40;36.30;;;;;;5076630;28;20035;-72
2021/10/28 06:06:23;;;;;;;3.47;0.57;;;32.30;37.10;;;;;;5078240;28;20051;-74
2021/10/28 06:08:51;;;;;;;3.90;0.50;;;32.30;36.80;;;;;;5083076;28;21193;-74
2021/10/28 06:11:20;;;;;;;4.95;0.60;;;32.30;36.60;;;;;;5078443;28;20329;-72
2021/10/28 06:13:48;;;;;;;4.00;0.65;;;32.10;37.30;;;;;;5078698;28;20063;-72
2021/10/28 06:16:16;;;;;;;0.60;0.20;;;32.10;36.90;;;;;;5082152;28;20349;-71
2021/10/28 06:18:45;;;;;;;3.08;0.40;;;32.10;37.80;;;;;;5085010;28;20045;-72
2021/10/28 06:21:16;;;;;;;3.78;0.55;;;32.00;37.60;;;;;;5092914;28;20020;-71
2021/10/28 06:23:44;;;;;;;1.10;0.20;;;32.00;38.00;;;;;;5083037;28;20074;-71
2021/10/28 06:26:12;;;;;;;1.90;0.30;;;32.00;38.00;;;;;;5082521;28;20491;-74
2021/10/28 06:28:40;;;;;;;1.15;0.28;;;31.90;37.60;;;;;;5093464;28;20028;-71
2021/10/28 06:31:07;;;;;;;1.92;0.30;;;31.90;37.20;;;;;;5093205;28;20051;-71
2021/10/28 06:33:36;;;;;;;0.68;0.20;;;31.90;37.30;;;;;;5092581;28;20398;-73
2021/10/28 06:36:04;;;;;;;3.15;0.40;;;31.80;38.00;;;;;;5091127;28;20382;-71
2021/10/28 06:38:35;;;;;;;2.75;0.55;;;31.70;38.20;;;;;;5070549;28;20147;-72
2021/10/28 06:41:02;;;;;;;0.63;0.40;;;31.60;38.40;;;;;;5099155;28;20027;-71
2021/10/28 06:43:31;;;;;;;1.02;0.40;;;31.60;38.30;;;;;;5105261;28;20387;-73
2021/10/28 06:45:59;;;;;;;1.83;1.10;;;31.60;38.10;;;;;;5098081;28;20032;-73
2021/10/28 06:48:27;;;;;;;0.77;0.30;;;31.50;38.00;;;;;;5096876;28;20043;-72
2021/10/28 06:50:57;;;;;;;5.88;1.15;;;31.40;38.10;;;;;;5086057;28;20046;-75
2021/10/28 06:53:26;;;;;;;2.72;1.13;;;31.40;37.60;;;;;;5093036;28;20039;-73
2021/10/28 07:04:14;;;;;;;4.45;0.38;;;31.20;38.60;;;;;;5090047;28;20131;-73
2021/10/28 07:06:41;;;;;;;1.92;0.57;;;31.10;39.30;;;;;;5085161;28;20031;-73
2021/10/28 07:09:29;;;;;;;1.13;0.50;;;31.00;41.00;;;;;;5095192;28;20028;-75
2021/10/28 07:14:33;;;;;;;2.30;0.47;;;30.80;43.90;;;;;;5087831;28;20514;-73
2021/10/28 07:17:14;;;;;;;3.50;0.88;;;30.50;45.30;;;;;;5092126;28;20036;-72
2021/10/28 07:22:38;;;;;;;2.28;0.70;;;30.10;47.40;;;;;;5089048;28;20040;-71
2021/10/28 08:06:09;;;;;;;5.53;1.13;;;28.40;49.80;;;;;;5078974;28;20027;-73
2021/10/28 08:16:58;;;;;;;1.83;1.08;;;28.10;51.50;;;;;;5082507;28;20030;-75
2021/10/28 08:19:49;;;;;;;6.97;1.30;;;28.10;52.00;;;;;;5079449;28;20048;-76
2021/10/28 08:22:23;;;;;;;8.05;1.67;;;28.00;52.50;;;;;;5076929;28;20199;-76
2021/10/28 08:30:20;;;;;;;2.28;1.15;;;27.90;54.00;;;;;;5080551;28;20088;-74
2021/10/28 08:32:47;;;;;;;3.20;1.10;;;27.80;54.60;;;;;;5079248;28;20102;-73
2021/10/28 08:35:15;;;;;;;1.10;0.65;;;27.80;55.60;;;;;;5077891;28;20047;-76
2021/10/28 08:40:16;;;;;;;5.82;1.33;;;27.70;55.20;;;;;;5077196;28;20039;-72
2021/10/28 08:42:45;;;;;;;2.85;0.90;;;27.70;55.30;;;;;;5084475;28;20521;-73
2021/10/28 08:45:16;;;;;;;2.83;1.48;;;27.60;55.30;;;;;;5080967;28;20032;-73
2021/10/28 08:47:55;;;;;;;8.57;1.65;;;27.60;55.60;;;;;;5080258;28;20024;-73
2021/10/28 08:50:37;;;;;;;4.93;1.83;;;27.40;55.60;;;;;;5079263;28;20036;-74
2021/10/28 08:53:22;;;;;;;5.25;1.67;;;27.40;55.90;;;;;;5080716;28;20547;-71
2021/10/28 08:56:01;;;;;;;5.05;1.85;;;27.20;56.80;;;;;;5077191;28;20056;-72
2021/10/28 09:23:55;;;;;;;;;;;;;;;;;;;;;
2021/10/28 09:26:50;;;;;;;3.33;1.20;;;25.60;59.80;;;;;;5079369;28;20060;-72
2021/10/28 09:29:41;;;;;;;4.43;1.35;;;25.50;60.40;;;;;;5078167;28;20039;-71
2021/10/28 09:51:47;;;;;;;3.63;1.40;;;24.60;64.60;;;;;;5080107;28;20551;-73
2021/10/28 09:54:36;;;;;;;2.33;1.10;;;24.60;65.20;;;;;;5076180;28;20048;-73
2021/10/28 09:59:59;;;;;;;5.30;1.13;;;24.30;65.80;;;;;;5076682;28;20070;-72
2021/10/28 10:02:40;;;;;;;4.95;1.52;;;24.30;66.40;;;;;;5076421;28;20030;-72
2021/10/28 10:05:17;;;;;;;3.85;1.50;;;24.20;66.80;;;;;;5082143;28;20059;-73
2021/10/28 10:07:45;;;;;;;4.53;1.38;;;24.20;67.40;;;;;;5078831;28;20107;-72
2021/10/28 10:10:16;;;;;;;6.32;2.53;;;24.10;67.10;;;;;;5086342;28;20030;-71
2021/10/28 10:12:44;;;;;;;3.35;1.65;;;24.10;67.50;;;;;;5083828;28;20091;-71
2021/10/28 10:15:13;;;;;;;4.20;1.67;;;24.00;68.00;;;;;;5080474;28;20136;-71
2021/10/28 10:17:43;;;;;;;4.03;1.98;;;24.00;68.50;;;;;;5080533;28;20045;-72
2021/10/28 10:20:13;;;;;;;3.20;1.27;;;23.90;69.10;;;;;;5089741;28;20040;-72
2021/10/28 10:25:33;;;;;;;2.70;1.38;;;23.80;69.20;;;;;;5084838;28;20371;-73
2021/10/28 11:31:07;;;;;;;;;;;22.40;77.70;;;;;;5078519;28;20123;-72
2021/10/28 12:45:57;;;;;;;6.80;1.70;;;20.70;94.40;;;;;;5077277;28;20035;-78
2021/10/28 12:49:02;;;;;;;6.07;1.83;;;20.70;95.20;;;;;;5082033;28;20159;-77
2021/10/28 12:51:48;;;;;;;3.33;1.33;;;20.70;95.50;;;;;;5076775;28;20052;-76
2021/10/28 13:47:57;;;;;;;6.50;1.88;;;19.70;99.90;;;;;;5084441;28;20032;-80
2021/10/28 13:54:28;;;;;;;6.05;2.53;;;19.70;99.90;;;;;;5074594;28;20032;-73
2021/10/28 13:57:22;;;;;;;7.90;2.30;;;19.70;99.90;;;;;;5078087;28;20089;-76
2021/10/28 15:03:04;;;;;;;2.72;1.17;;;19.20;99.90;;;;;;5081269;28;20039;-72
2021/10/28 15:35:44;;;;;;;2.90;1.25;;;19.00;99.90;;;;;;5077998;28;20047;-74
2021/10/28 15:38:19;;;;;;;1.98;1.00;;;19.00;99.90;;;;;;5094777;28;20036;-75
2021/10/28 15:59:48;;;;;;;3.13;2.00;;;18.60;99.90;;;;;;5071993;28;20447;-71
2021/10/28 16:24:14;;;;;;;3.30;2.08;;;18.20;99.90;;;;;;5079659;28;20392;-72
2021/10/28 16:26:42;;;;;;;6.15;2.08;;;18.20;99.90;;;;;;5084320;28;20115;-73
2021/10/28 16:29:12;;;;;;;3.00;1.88;;;18.20;99.90;;;;;;5090844;28;20028;-72
2021/10/28 16:31:41;;;;;;;3.50;1.80;;;18.20;99.90;;;;;;5080881;28;20518;-73
2021/10/28 16:34:09;;;;;;;3.72;2.08;;;18.20;99.90;;;;;;5089629;28;20123;-72
2021/10/28 16:36:37;;;;;;;3.53;1.98;;;18.20;99.90;;;;;;5091583;28;20069;-72
2021/10/28 16:39:11;;;;;;;4.50;1.63;;;18.20;99.90;;;;;;5088805;28;20055;-73
2021/10/28 16:41:41;;;;;;;9.75;1.75;;;18.30;99.90;;;;;;5083531;28;20135;-72
2021/10/28 16:44:10;;;;;;;3.25;1.48;;;18.30;99.90;;;;;;5093838;28;20744;-72
2021/10/28 16:46:38;;;;;;;3.53;2.13;;;18.40;99.90;;;;;;5080320;28;20078;-74
2021/10/28 16:49:08;;;;;;;3.70;1.92;;;18.40;99.90;;;;;;5086621;28;20036;-72
2021/10/28 16:51:36;;;;;;;4.03;1.60;;;18.50;99.90;;;;;;5086355;28;20031;-72
2021/10/28 16:54:05;;;;;;;3.90;2.20;;;18.50;99.90;;;;;;5080354;28;20058;-73
2021/10/28 16:56:32;;;;;;;3.97;1.70;;;18.50;99.90;;;;;;5075938;28;20395;-74
2021/10/28 16:59:00;;;;;;;2.30;1.63;;;18.50;99.90;;;;;;5076207;28;20476;-72
2021/10/28 17:01:28;;;;;;;4.70;1.38;;;18.50;99.90;;;;;;5088945;28;20028;-71
2021/10/28 17:03:56;;;;;;;6.45;1.70;;;18.60;99.90;;;;;;5085538;28;20039;-76
2021/10/28 17:06:23;;;;;;;4.80;1.90;;;18.50;99.90;;;;;;5085413;28;20031;-71
2021/10/28 17:08:55;;;;;;;2.50;1.48;;;18.50;99.90;;;;;;5078316;28;20063;-72
2021/10/28 17:11:22;;;;;;;4.95;1.80;;;18.50;99.90;;;;;;5089736;28;20028;-73
2021/10/28 17:13:50;;;;;;;5.38;2.85;;;18.40;99.90;;;;;;5083254;28;20032;-71
2021/10/28 17:16:17;;;;;;;4.18;1.50;;;18.40;99.90;;;;;;5079898;28;20512;-70
2021/10/28 17:18:45;;;;;;;2.85;1.90;;;18.40;99.90;;;;;;5091648;28;20054;-74
2021/10/28 17:21:12;;;;;;;3.65;2.13;;;18.30;99.90;;;;;;5087930;28;20120;-71
2021/10/28 17:23:43;;;;;;;4.38;1.35;;;18.30;99.90;;;;;;5075000;28;20040;-72
2021/10/28 17:26:13;;;;;;;2.55;1.73;;;18.30;99.90;;;;;;5086494;28;20020;-74
2021/10/28 17:28:40;;;;;;;4.20;1.42;;;18.30;99.90;;;;;;5089708;28;20546;-70
2021/10/28 17:31:08;;;;;;;3.30;1.65;;;18.30;99.90;;;;;;5081469;28;20459;-71
2021/10/28 17:33:36;;;;;;;4.47;2.10;;;18.30;99.90;;;;;;5085239;28;20075;-72
2021/10/28 17:36:04;;;;;;;7.53;2.22;;;18.40;99.90;;;;;;5072462;28;20134;-74
2021/10/28 17:38:33;;;;;;;3.20;1.92;;;18.40;99.90;;;;;;5072181;28;20122;-73
2021/10/28 17:41:07;;;;;;;3.05;1.63;;;18.40;99.90;;;;;;5076851;28;20362;-73
2021/10/28 17:43:41;;;;;;;6.85;2.10;;;18.40;99.90;;;;;;5087323;28;20044;-72
2021/10/28 17:46:10;;;;;;;5.85;2.70;;;18.40;99.90;;;;;;5073816;28;20013;-71
2021/10/28 17:48:38;;;;;;;2.22;1.88;;;18.30;99.90;;;;;;5084412;28;20028;-71
2021/10/28 17:51:05;;;;;;;6.35;2.22;;;18.30;99.90;;;;;;5087055;28;20149;-71
2021/10/28 17:53:33;;;;;;;8.43;2.55;;;18.30;99.90;;;;;;5084098;28;20021;-72
2021/10/28 17:56:00;;;;;;;6.53;2.50;;;18.30;99.90;;;;;;5076598;28;20050;-71
2021/10/28 17:58:28;;;;;;;4.70;2.00;;;18.20;99.90;;;;;;5092183;28;20030;-71
2021/10/28 18:00:55;;;;;;;6.30;2.70;;;18.20;99.90;;;;;;5073303;28;20035;-73
2021/10/28 18:03:23;;;;;;;3.67;1.40;;;18.20;99.90;;;;;;5072933;28;20024;-73
2021/10/28 18:05:52;;;;;;;4.05;1.75;;;18.20;99.90;;;;;;5075192;28;20066;-74
2021/10/28 18:08:20;;;;;;;4.45;2.15;;;18.10;99.90;;;;;;5091972;28;20028;-72
2021/10/28 18:10:47;;;;;;;3.67;2.03;;;18.10;99.90;;;;;;5072588;28;20534;-70
2021/10/28 18:13:17;;;;;;;3.13;1.55;;;18.10;99.90;;;;;;5082942;28;20032;-72
2021/10/28 18:15:46;;;;;;;3.83;1.55;;;18.10;99.90;;;;;;5083429;28;20646;-76
2021/10/28 18:18:13;;;;;;;4.00;2.03;;;18.10;99.90;;;;;;5091898;28;20034;-71
2021/10/28 18:20:41;;;;;;;1.90;1.35;;;18.20;99.90;;;;;;5088948;28;20025;-73
2021/10/28 18:23:09;;;;;;;2.90;1.70;;;18.20;99.90;;;;;;5095378;28;20020;-73
2021/10/28 18:25:37;;;;;;;3.45;1.40;;;18.20;99.90;;;;;;5094917;28;20395;-71
2021/10/28 18:28:04;;;;;;;3.35;1.95;;;18.20;99.90;;;;;;5096259;28;20031;-74
2021/10/28 18:30:36;;;;;;;3.03;1.50;;;18.20;99.90;;;;;;5093103;28;20032;-72
2021/10/28 18:33:04;;;;;;;2.85;1.77;;;18.20;99.90;;;;;;5088461;28;20040;-75
2021/10/28 18:35:32;;;;;;;3.03;1.73;;;18.20;99.90;;;;;;5089006;28;20107;-73
2021/10/28 18:37:59;;;;;;;3.45;1.42;;;18.20;99.90;;;;;;5096013;28;20020;-72
2021/10/28 18:40:27;;;;;;;3.13;1.90;;;18.20;99.90;;;;;;5088572;28;20468;-72
2021/10/28 18:42:54;;;;;;;4.30;1.63;;;18.20;99.90;;;;;;5086497;28;20048;-73
2021/10/28 18:45:22;;;;;;;3.58;1.30;;;18.20;99.90;;;;;;5075753;28;20446;-75
2021/10/28 18:47:51;;;;;;;3.15;1.23;;;18.20;99.90;;;;;;5083679;28;20085;-73
2021/10/28 18:50:19;;;;;;;1.65;1.10;;;18.10;99.90;;;;;;5077870;28;20501;-73
2021/10/28 18:52:46;;;;;;;2.15;1.40;;;18.10;99.90;;;;;;5092147;28;20044;-73
2021/10/28 18:55:14;;;;;;;4.63;1.50;;;18.20;99.90;;;;;;5095172;28;20020;-72
2021/10/28 18:57:41;;;;;;;2.47;1.40;;;18.20;99.90;;;;;;5089202;28;20073;-74
2021/10/28 19:00:11;;;;;;;1.83;1.20;;;18.20;99.90;;;;;;5095443;28;20603;-72
2021/10/28 19:02:39;;;;;;;2.67;1.35;;;18.20;99.90;;;;;;5092880;28;20043;-74
2021/10/28 19:05:07;;;;;;;10.23;1.92;;;18.20;99.90;;;;;;5094575;28;20028;-73
2021/10/28 19:07:35;;;;;;;5.07;1.17;;;18.10;99.90;;;;;;5077904;28;20081;-74
2021/10/28 19:10:03;;;;;;;4.03;1.20;;;18.10;99.90;;;;;;5075251;28;20104;-72
2021/10/28 19:12:30;;;;;;;3.63;1.80;;;18.10;99.90;;;;;;5075136;28;20035;-75
2021/10/28 19:14:57;;;;;;;1.77;1.38;;;18.10;99.90;;;;;;5075842;28;20473;-76
2021/10/28 19:17:25;;;;;;;5.18;2.10;;;18.10;99.90;;;;;;5090639;28;20059;-72
2021/10/28 19:19:52;;;;;;;3.10;1.90;;;18.00;99.90;;;;;;5093849;28;20125;-75
2021/10/28 19:22:20;;;;;;;3.47;1.83;;;18.00;99.90;;;;;;5081352;28;20111;-77
2021/10/28 19:24:47;;;;;;;4.07;1.80;;;18.10;99.90;;;;;;5056825;28;20028;-76
2021/10/28 19:27:14;;;;;;;4.45;1.98;;;18.00;99.90;;;;;;5074829;28;20072;-71
2021/10/28 19:29:47;;;;;;;2.10;1.40;;;18.10;99.90;;;;;;5074770;28;20455;-72
2021/10/28 19:32:19;;;;;;;4.18;1.65;;;18.00;99.90;;;;;;5059939;28;20041;-72
2021/10/28 19:34:47;;;;;;;2.88;1.95;;;18.00;99.90;;;;;;5083754;28;20036;-74
2021/10/28 19:37:33;;;;;;;4.32;1.52;;;18.00;99.90;;;;;;5091477;28;20025;-73
2021/10/28 19:47:59;;;;;;;4.25;1.63;;;18.10;99.90;;;;;;5074418;28;20034;-72
2021/10/28 19:50:27;;;;;;;2.67;1.52;;;18.20;99.90;;;;;;5074834;28;20036;-73
2021/10/28 19:52:55;;;;;;;6.03;2.03;;;18.20;99.90;;;;;;5078041;28;20028;-70
2021/10/28 19:55:22;;;;;;;1.67;1.40;;;18.20;99.90;;;;;;5077876;28;20033;-75
2021/10/28 19:57:54;;;;;;;3.17;1.63;;;18.30;99.90;;;;;;5074772;28;20016;-75
2021/10/28 20:00:28;;;;;;;6.03;2.13;;;18.30;99.90;;;;;;5087342;28;20067;-75
2021/10/28 20:21:34;;;;;;;6.75;1.70;;;18.60;99.90;;;;;;5074915;28;20391;-73
2021/10/28 20:24:02;;;;;;;7.03;1.63;;;18.60;99.90;;;;;;5075859;28;20020;-73
2021/10/28 20:26:30;;;;;;;4.07;1.52;;;18.60;99.90;;;;;;5092297;28;20598;-76
2021/10/28 20:29:00;;;;;;;5.80;1.27;;;18.60;99.90;;;;;;5079180;28;20063;-72
2021/10/28 20:31:28;;;;;;;4.78;1.63;;;18.70;99.90;;;;;;5089486;28;20054;-75
2021/10/28 20:39:20;;;;;;;2.30;1.02;;;18.90;99.90;;;;;;5092004;28;20051;-72
2021/10/28 20:41:47;;;;;;;3.28;1.13;;;19.00;99.90;;;;;;5088767;28;20035;-72
2021/10/28 20:44:15;;;;;;;4.97;1.35;;;19.10;99.90;;;;;;5081826;28;20024;-75
2021/10/28 20:46:43;;;;;;;2.85;1.23;;;19.20;99.90;;;;;;5081698;28;20391;-72
2021/10/28 20:49:12;;;;;;;3.08;1.25;;;19.40;99.90;;;;;;5073092;28;20028;-72
2021/10/28 20:51:39;;;;;;;5.63;1.13;;;19.50;99.90;;;;;;5083125;28;20028;-72
2021/10/28 20:54:07;;;;;;;2.85;0.88;;;19.70;99.90;;;;;;5093519;28;20024;-75
2021/10/28 20:56:34;;;;;;;2.05;0.90;;;19.80;99.90;;;;;;5091308;28;20398;-75
2021/10/28 20:59:01;;;;;;;2.47;0.57;;;19.90;99.90;;;;;;5086178;28;20047;-74
2021/10/28 21:01:29;;;;;;;2.80;0.80;;;20.00;99.10;;;;;;5080957;28;20031;-74
2021/10/28 21:03:56;;;;;;;2.85;0.60;;;20.20;98.60;;;;;;5092492;28;20024;-75
2021/10/28 21:06:24;;;;;;;5.55;1.23;;;20.20;97.50;;;;;;5078560;28;20020;-73
2021/10/28 21:08:51;;;;;;;1.73;0.93;;;20.30;97.70;;;;;;5073120;28;20028;-73
2021/10/28 21:11:18;;;;;;;7.63;2.30;;;20.40;97.50;;;;;;5080961;28;20082;-74
2021/10/28 21:13:46;;;;;;;8.88;1.55;;;20.40;97.00;;;;;;5082439;28;20056;-76
2021/10/28 21:16:13;;;;;;;3.05;0.70;;;20.50;96.30;;;;;;5072631;28;20459;-75
2021/10/28 21:18:41;;;;;;;7.43;0.90;;;20.60;96.50;;;;;;5072977;28;20024;-74
2021/10/28 21:21:08;;;;;;;2.40;0.75;;;20.70;96.50;;;;;;5084497;28;20059;-74
2021/10/28 21:23:36;;;;;;;1.80;0.73;;;20.90;95.50;;;;;;5093268;28;20099;-73
2021/10/28 21:26:04;;;;;;;0.98;0.50;;;21.20;95.10;;;;;;5083715;28;20021;-74
2021/10/28 21:28:31;;;;;;;3.03;0.52;;;21.40;93.80;;;;;;5072295;28;20029;-72
2021/10/28 21:30:58;;;;;;;1.02;0.40;;;21.60;92.70;;;;;;5077781;28;20020;-74
2021/10/28 21:33:26;;;;;;;1.25;0.50;;;21.80;92.10;;;;;;5081288;28;20064;-73
2021/10/28 21:35:53;;;;;;;2.35;0.90;;;21.90;91.40;;;;;;5073094;28;20359;-72
2021/10/28 21:38:20;;;;;;;3.22;0.85;;;21.90;91.90;;;;;;5080322;28;20028;-72
2021/10/28 21:40:48;;;;;;;1.88;0.90;;;22.00;91.50;;;;;;5077837;28;20106;-75
2021/10/28 21:43:15;;;;;;;2.72;0.80;;;22.10;91.50;;;;;;5081203;28;20125;-73
2021/10/28 21:45:46;;;;;;;4.80;0.57;;;22.10;91.30;;;;;;5081390;28;20042;-74
2021/10/28 21:48:15;;;;;;;1.90;0.60;;;22.10;91.40;;;;;;5083545;28;20032;-74
2021/10/28 21:50:43;;;;;;;3.90;0.75;;;22.20;91.00;;;;;;5077371;28;20402;-74
2021/10/28 21:53:15;;;;;;;5.10;0.82;;;22.40;90.80;;;;;;5079044;28;20028;-76
2021/10/28 22:25:47;;;;;;;2.25;0.80;;;26.00;80.30;;;;;;5082947;28;20509;-73
2021/10/28 22:28:15;;;;;;;3.53;0.80;;;26.20;80.50;;;;;;5073121;28;20044;-75
2021/10/28 22:30:42;;;;;;;2.47;0.73;;;26.30;79.50;;;;;;5076742;28;20530;-75
2021/10/28 22:33:10;;;;;;;6.95;0.90;;;26.30;79.60;;;;;;5080032;28;20063;-73